Main page
METAR-TAF:

METAR-TAF

Airports :

Inverness, Scotland

Inverness Airport

latitude: 57-32N, longitude: 004-03W, elevation: 9 m

Current weather observation

The report was made 27 minutes ago, at 06:50 UTC
Wind 1 kt from variable directions
Temperature 15°C
Humidity 88%
Pressure 1018 hPa
Visibility 10 km or more
Few clouds at a height of 1000 ft
fog in vicinity

METAR: EGPE 260650Z VRB01KT 9999 VCFG FEW010 15/13 Q1018

Time: 08:17 (07:17 UTC)

Forecast

The report was made 2 hours and 18 minutes ago, at 04:59 UTC
Forecast valid from 26 at 06 UTC to 26 at 15 UTC
Wind 4 kt from the North/Northeast
Visibility: 0300 m
fog
Becoming
from 26 at 06 UTC to 26 at 08 UTC
Visibility 10 km or more
Few clouds at a height of 500 ft

TAF: EGPE 260459Z 2606/2615 02004KT 0300 FG VV/// BECMG 2606/2608 9999 NSW FEW005

Weather observations and forecasts of more than 4000 airports (METAR and TAF reports).

The available stations are represented by yellow and red dots on the map.

Hover mouse over dot to see the name of the station.

Then click to see weather observations and forecasts.

To change the map : click on the green buttons with a black cross to zoom in, on the green button with a dash to zoom out, or on the green arrows for adjacent maps.


METAR-TAF: